createdAt,value
2023-03-29T00:00:09.518Z,89.00
2023-03-29T00:02:39.276Z,86.40
2023-03-29T00:05:07.571Z,90.40
2023-03-29T00:07:35.242Z,87.30
2023-03-29T00:10:04.775Z,89.40
2023-03-29T00:12:32.816Z,87.10
2023-03-29T00:15:00.467Z,90.10
2023-03-29T00:17:28.568Z,90.40
2023-03-29T00:19:59.199Z,89.20
2023-03-29T00:22:26.643Z,88.60
2023-03-29T00:25:01.480Z,89.70
2023-03-29T00:27:29.340Z,88.80
2023-03-29T00:29:57.893Z,89.50
2023-03-29T00:32:27.512Z,90.30
2023-03-29T00:34:56.775Z,87.90
2023-03-29T00:37:29.784Z,86.40
2023-03-29T00:39:57.953Z,86.30
2023-03-29T00:42:26.251Z,88.00
2023-03-29T00:45:05.315Z,89.00
2023-03-29T00:47:50.243Z,85.00
2023-03-29T00:50:22.736Z,88.70
2023-03-29T00:52:56.326Z,87.70
2023-03-29T00:55:27.659Z,87.70
2023-03-29T00:57:57.270Z,87.30
2023-03-29T01:00:31.891Z,88.40
2023-03-29T01:03:03.211Z,89.10
2023-03-29T01:05:39.229Z,87.10
2023-03-29T01:08:12.412Z,88.70
2023-03-29T01:10:48.674Z,88.00
2023-03-29T01:13:22.410Z,89.60
2023-03-29T01:15:52.804Z,88.40
2023-03-29T01:18:23.138Z,91.60
2023-03-29T01:21:10.156Z,89.30
2023-03-29T01:23:58.636Z,85.30
2023-03-29T01:26:38.540Z,87.70
2023-03-29T01:29:17.738Z,87.80
2023-03-29T01:31:50.188Z,88.60
2023-03-29T01:34:30.332Z,89.50
2023-03-29T01:37:17.229Z,88.30
2023-03-29T01:39:45.887Z,87.90
2023-03-29T01:42:26.978Z,86.40
2023-03-29T01:45:13.157Z,87.20
2023-03-29T01:48:06.098Z,89.80
2023-03-29T01:50:43.461Z,87.70
2023-03-29T01:53:43.134Z,87.40
2023-03-29T01:56:19.446Z,87.50
2023-03-29T01:58:57.629Z,88.10
2023-03-29T02:01:30.012Z,88.60
2023-03-29T02:04:03.015Z,88.10
2023-03-29T02:06:36.025Z,88.70
2023-03-29T02:09:05.249Z,88.40
2023-03-29T02:11:36.211Z,89.30
2023-03-29T02:14:03.775Z,89.30
2023-03-29T02:16:39.065Z,90.00
2023-03-29T02:19:09.533Z,89.90
2023-03-29T02:21:42.931Z,89.20
2023-03-29T02:24:14.363Z,88.30
2023-03-29T02:26:41.851Z,87.30
2023-03-29T02:29:09.841Z,88.20
2023-03-29T02:31:42.985Z,88.00
2023-03-29T02:34:30.159Z,89.00
2023-03-29T02:37:00.983Z,87.40
2023-03-29T02:39:32.292Z,87.80
2023-03-29T02:42:01.205Z,90.30
2023-03-29T02:44:31.615Z,87.20
2023-03-29T02:47:24.593Z,87.40
2023-03-29T02:49:52.490Z,89.30
2023-03-29T02:52:25.799Z,85.90
2023-03-29T02:54:55.874Z,89.20
2023-03-29T02:57:26.573Z,87.70
2023-03-29T02:59:57.050Z,86.90
2023-03-29T03:02:26.281Z,88.80
2023-03-29T03:04:54.808Z,87.00
2023-03-29T03:07:22.652Z,88.80
2023-03-29T03:09:50.160Z,88.40
2023-03-29T03:12:17.711Z,90.30
2023-03-29T03:14:45.736Z,87.00
2023-03-29T03:17:13.200Z,90.00
2023-03-29T03:19:40.806Z,87.80
2023-03-29T03:22:10.007Z,87.70
2023-03-29T03:24:37.730Z,88.30
2023-03-29T03:27:06.293Z,90.00
2023-03-29T03:29:35.334Z,90.30
2023-03-29T03:32:22.787Z,89.40
2023-03-29T03:35:16.320Z,88.50
2023-03-29T03:37:44.199Z,87.50
2023-03-29T03:40:13.492Z,88.10
2023-03-29T03:42:41.452Z,86.80
2023-03-29T03:45:12.291Z,87.50
2023-03-29T03:48:06.968Z,87.70
2023-03-29T03:51:10.219Z,86.60
2023-03-29T03:53:37.989Z,88.10
2023-03-29T03:56:31.372Z,90.10
2023-03-29T03:59:11.000Z,87.90
2023-03-29T04:01:48.346Z,88.20
2023-03-29T04:04:20.165Z,89.10
2023-03-29T04:07:13.111Z,87.90
2023-03-29T04:10:01.202Z,86.90
2023-03-29T04:12:38.477Z,88.60
2023-03-29T04:15:08.727Z,88.30
2023-03-29T04:17:36.874Z,86.50
2023-03-29T04:20:14.990Z,87.60
2023-03-29T04:22:42.440Z,88.90
2023-03-29T04:25:11.778Z,86.80
2023-03-29T04:27:49.992Z,87.30
2023-03-29T04:30:36.027Z,87.60
2023-03-29T04:33:32.558Z,87.40
2023-03-29T04:36:01.667Z,86.40
2023-03-29T04:38:31.384Z,89.30
2023-03-29T04:41:01.411Z,86.70
2023-03-29T04:43:47.727Z,89.40
2023-03-29T04:46:26.480Z,87.90
2023-03-29T04:49:17.707Z,87.00
2023-03-29T04:51:49.462Z,86.30
2023-03-29T04:54:21.341Z,88.60
2023-03-29T04:57:17.258Z,87.40
2023-03-29T05:00:14.603Z,87.20
2023-03-29T05:03:17.335Z,86.60
2023-03-29T05:05:54.775Z,86.90
2023-03-29T05:08:22.214Z,87.20
2023-03-29T05:11:11.737Z,88.40
2023-03-29T05:13:42.773Z,87.80
2023-03-29T05:16:11.299Z,86.90
2023-03-29T05:18:39.558Z,89.30
2023-03-29T05:21:07.770Z,88.70
2023-03-29T05:23:37.519Z,89.90
2023-03-29T05:26:09.855Z,90.30
2023-03-29T05:28:38.701Z,87.70
2023-03-29T05:31:07.158Z,87.70
2023-03-29T05:33:39.590Z,89.00
2023-03-29T05:36:11.220Z,90.00
2023-03-29T05:38:46.688Z,87.70
2023-03-29T05:41:15.924Z,86.90
2023-03-29T05:44:06.587Z,89.30
2023-03-29T05:46:34.607Z,88.00
2023-03-29T05:49:04.438Z,88.10
2023-03-29T05:51:52.525Z,88.60
2023-03-29T05:54:20.115Z,90.00
2023-03-29T05:56:47.609Z,90.40
2023-03-29T05:59:17.647Z,90.80
2023-03-29T06:01:48.539Z,88.00
2023-03-29T06:04:19.661Z,88.20
2023-03-29T06:07:00.306Z,88.10
2023-03-29T06:09:28.725Z,86.90
2023-03-29T06:12:04.334Z,90.20
2023-03-29T06:14:38.847Z,91.00
2023-03-29T06:17:33.797Z,90.10
2023-03-29T06:20:04.564Z,87.30
2023-03-29T06:22:32.450Z,87.50
2023-03-29T06:25:01.192Z,87.90
2023-03-29T06:27:34.608Z,88.40
2023-03-29T06:30:02.808Z,87.80
2023-03-29T06:32:34.901Z,88.30
2023-03-29T06:35:24.863Z,88.90
2023-03-29T06:38:00.232Z,90.10
2023-03-29T06:40:38.902Z,89.00
2023-03-29T06:43:07.500Z,89.30
2023-03-29T06:45:55.250Z,91.60
2023-03-29T06:48:33.065Z,90.00
2023-03-29T06:51:01.171Z,91.00
2023-03-29T06:53:30.782Z,90.80
2023-03-29T06:56:09.315Z,88.80
2023-03-29T06:58:45.132Z,88.90
2023-03-29T07:01:27.334Z,90.80
2023-03-29T07:04:09.736Z,90.20
2023-03-29T07:07:01.844Z,91.10
2023-03-29T07:09:39.439Z,87.60
2023-03-29T07:12:44.727Z,90.70
2023-03-29T07:15:15.793Z,91.30
2023-03-29T07:18:17.179Z,90.80
2023-03-29T07:20:49.366Z,90.20
2023-03-29T07:23:18.104Z,87.40
2023-03-29T07:25:47.375Z,93.30
2023-03-29T07:28:15.243Z,90.20
2023-03-29T07:30:42.956Z,90.60
2023-03-29T07:33:16.972Z,89.10
2023-03-29T07:35:50.996Z,90.50
2023-03-29T07:38:18.838Z,90.70
2023-03-29T07:40:50.399Z,90.00
2023-03-29T07:43:41.911Z,89.40
2023-03-29T07:46:11.755Z,91.00
2023-03-29T07:48:39.993Z,91.70
2023-03-29T07:51:10.071Z,90.00
2023-03-29T07:53:45.690Z,88.50
2023-03-29T07:56:30.537Z,88.60
2023-03-29T07:59:13.482Z,87.30
2023-03-29T08:01:44.625Z,88.90
2023-03-29T08:04:26.742Z,87.70
2023-03-29T08:07:16.382Z,88.90
2023-03-29T08:10:09.106Z,87.10
2023-03-29T08:12:57.300Z,85.80
2023-03-29T08:15:32.236Z,90.60
2023-03-29T08:18:01.003Z,91.30
2023-03-29T08:20:28.702Z,90.00
2023-03-29T08:23:01.442Z,86.30
2023-03-29T08:25:52.159Z,86.90
2023-03-29T08:28:19.665Z,87.20
2023-03-29T08:30:51.455Z,89.90
2023-03-29T08:33:19.142Z,87.60
2023-03-29T08:35:52.637Z,91.00
2023-03-29T08:38:29.316Z,88.70
2023-03-29T08:40:56.842Z,88.60
2023-03-29T08:43:37.914Z,86.90
2023-03-29T08:46:47.192Z,86.60
2023-03-29T08:49:27.125Z,86.20
2023-03-29T08:52:02.622Z,87.80
2023-03-29T08:54:41.603Z,87.90
2023-03-29T08:57:33.465Z,88.50
2023-03-29T09:00:10.614Z,87.00
2023-03-29T09:02:42.258Z,86.30
2023-03-29T09:05:22.868Z,86.60
2023-03-29T09:08:18.249Z,86.90
2023-03-29T09:11:13.382Z,86.60
2023-03-29T09:14:06.918Z,85.60
2023-03-29T09:16:48.528Z,85.60
2023-03-29T09:19:39.393Z,85.10
2023-03-29T09:22:31.383Z,85.50
2023-03-29T09:25:25.255Z,85.10
2023-03-29T09:28:19.255Z,85.10
2023-03-29T09:31:08.174Z,85.30
2023-03-29T09:34:09.809Z,84.30
2023-03-29T09:36:56.758Z,85.30
2023-03-29T09:39:28.469Z,87.00
2023-03-29T09:42:09.268Z,86.10
2023-03-29T09:44:49.110Z,85.40
2023-03-29T09:47:52.874Z,84.70
2023-03-29T09:50:31.617Z,85.20
2023-03-29T09:53:02.040Z,85.70
2023-03-29T09:55:34.129Z,88.20
2023-03-29T09:58:36.112Z,85.50
2023-03-29T10:01:10.382Z,88.10
2023-03-29T10:03:39.968Z,84.90
2023-03-29T10:06:14.679Z,85.50
2023-03-29T10:08:58.970Z,83.80
2023-03-29T10:11:37.250Z,84.90
2023-03-29T10:14:13.893Z,82.90
2023-03-29T10:16:46.294Z,84.20
2023-03-29T10:19:19.220Z,85.20
2023-03-29T10:21:55.101Z,85.20
2023-03-29T10:24:27.053Z,84.30
2023-03-29T10:27:01.678Z,83.80
2023-03-29T10:29:36.314Z,83.50
2023-03-29T10:32:18.356Z,84.70
2023-03-29T10:34:47.722Z,84.10
2023-03-29T10:37:19.360Z,84.30
2023-03-29T10:39:48.348Z,85.30
2023-03-29T10:42:18.969Z,85.90
2023-03-29T10:44:58.361Z,85.70
2023-03-29T10:47:31.608Z,85.40
2023-03-29T10:49:59.064Z,84.70
2023-03-29T10:52:29.316Z,87.70
2023-03-29T10:54:57.030Z,85.30
2023-03-29T10:57:52.075Z,86.40
2023-03-29T11:00:37.364Z,85.00
2023-03-29T11:03:17.100Z,85.00
2023-03-29T11:05:54.039Z,85.50
2023-03-29T11:08:44.545Z,84.20
2023-03-29T11:11:36.315Z,87.10
2023-03-29T11:14:08.646Z,85.70
2023-03-29T11:16:46.881Z,85.80
2023-03-29T11:19:38.716Z,85.70
2023-03-29T11:22:15.849Z,85.00
2023-03-29T11:25:02.169Z,84.60
2023-03-29T11:27:46.144Z,85.70
2023-03-29T11:30:23.965Z,85.00
2023-03-29T11:33:28.921Z,85.10
2023-03-29T11:36:02.966Z,85.10
2023-03-29T11:38:50.968Z,85.50
2023-03-29T11:41:26.851Z,85.30
2023-03-29T11:44:06.218Z,83.40
2023-03-29T11:46:42.621Z,84.90
2023-03-29T11:49:25.250Z,85.10
2023-03-29T11:51:59.584Z,84.30
2023-03-29T11:54:53.537Z,85.00
2023-03-29T11:57:50.818Z,84.20
2023-03-29T12:00:20.818Z,84.20
2023-03-29T12:02:56.055Z,84.40
2023-03-29T12:05:30.999Z,83.90
2023-03-29T12:08:20.247Z,85.30
2023-03-29T12:10:59.085Z,83.90
2023-03-29T12:13:33.888Z,84.50
2023-03-29T12:16:46.631Z,85.00
2023-03-29T12:19:14.005Z,84.40
2023-03-29T12:21:42.530Z,85.10
2023-03-29T12:24:16.374Z,84.80
2023-03-29T12:27:02.927Z,85.40
2023-03-29T12:29:36.407Z,85.40
2023-03-29T12:32:22.099Z,85.10
2023-03-29T12:35:52.913Z,86.60
2023-03-29T12:38:59.223Z,86.20
2023-03-29T12:41:49.277Z,85.50
2023-03-29T12:44:35.823Z,85.70
2023-03-29T12:47:26.665Z,87.70
2023-03-29T12:49:59.393Z,86.40
2023-03-29T12:52:36.778Z,86.70
2023-03-29T12:55:23.771Z,86.60
2023-03-29T12:58:21.222Z,86.40
2023-03-29T13:01:16.786Z,85.70
2023-03-29T13:03:51.978Z,84.70
2023-03-29T13:06:51.199Z,85.80
2023-03-29T13:09:22.733Z,84.90
2023-03-29T13:12:22.088Z,85.00
2023-03-29T13:15:16.946Z,85.60
2023-03-29T13:18:06.985Z,84.30
2023-03-29T13:20:43.364Z,84.50
2023-03-29T13:23:33.453Z,83.80
2023-03-29T13:26:30.454Z,83.10
2023-03-29T13:29:11.494Z,82.40
2023-03-29T13:31:53.885Z,82.40
2023-03-29T13:34:46.571Z,82.10
2023-03-29T13:37:44.218Z,82.40
2023-03-29T13:40:46.829Z,82.30
2023-03-29T13:43:34.683Z,83.50
2023-03-29T13:46:03.913Z,83.50
2023-03-29T13:48:37.877Z,85.20
2023-03-29T13:51:17.473Z,87.90
2023-03-29T13:54:13.526Z,82.40
2023-03-29T13:57:01.626Z,84.40
2023-03-29T13:59:53.232Z,85.60
2023-03-29T14:02:42.767Z,82.00
2023-03-29T14:05:15.881Z,81.70
2023-03-29T14:07:54.729Z,81.80
2023-03-29T14:10:41.202Z,83.10
2023-03-29T14:13:18.248Z,81.50
2023-03-29T14:15:52.124Z,82.20
2023-03-29T14:18:23.114Z,81.60
2023-03-29T14:20:55.513Z,82.10
2023-03-29T14:23:25.518Z,82.30
2023-03-29T14:25:53.132Z,81.40
2023-03-29T14:28:27.045Z,83.70
2023-03-29T14:30:56.749Z,81.80
2023-03-29T14:33:34.510Z,80.70
2023-03-29T14:36:08.800Z,80.40
2023-03-29T14:38:37.689Z,80.40
2023-03-29T14:41:07.527Z,80.90
2023-03-29T14:43:35.049Z,81.10
2023-03-29T14:46:08.231Z,83.20
2023-03-29T14:48:37.398Z,79.00
2023-03-29T14:51:05.895Z,80.00
2023-03-29T14:53:34.592Z,80.30
2023-03-29T14:56:02.361Z,79.50
2023-03-29T14:58:34.256Z,80.40
2023-03-29T15:01:22.926Z,79.70
2023-03-29T15:04:04.517Z,79.80
2023-03-29T15:06:37.996Z,79.40
2023-03-29T15:09:07.279Z,79.70
2023-03-29T15:11:36.204Z,80.40
2023-03-29T15:14:08.846Z,81.90
2023-03-29T15:16:41.883Z,79.30
2023-03-29T15:19:21.335Z,80.10
2023-03-29T15:21:50.061Z,79.80
2023-03-29T15:24:31.784Z,79.40
2023-03-29T15:27:14.572Z,79.00
2023-03-29T15:29:43.757Z,79.10
2023-03-29T15:32:24.009Z,79.20
2023-03-29T15:35:02.575Z,79.00
2023-03-29T15:37:30.043Z,79.10
2023-03-29T15:39:57.561Z,80.90
2023-03-29T15:42:25.737Z,79.60
2023-03-29T15:44:56.864Z,79.40
2023-03-29T15:47:24.356Z,81.10
2023-03-29T15:49:51.929Z,79.70
2023-03-29T15:52:19.541Z,82.80
2023-03-29T15:54:46.910Z,82.00
2023-03-29T15:57:16.298Z,81.20
2023-03-29T15:59:44.480Z,79.60
2023-03-29T16:02:15.705Z,80.80
2023-03-29T16:04:43.571Z,79.30
2023-03-29T16:07:14.893Z,81.00
2023-03-29T16:09:43.290Z,79.60
2023-03-29T16:12:11.838Z,79.70
2023-03-29T16:14:39.456Z,80.40
2023-03-29T16:17:07.116Z,81.50
2023-03-29T16:19:35.000Z,83.30
2023-03-29T16:22:07.150Z,82.60
2023-03-29T16:24:35.844Z,83.90
2023-03-29T16:27:03.927Z,80.90
2023-03-29T16:29:31.869Z,81.30
2023-03-29T16:31:59.666Z,81.40
2023-03-29T16:34:27.069Z,81.00
2023-03-29T16:36:54.525Z,80.90
2023-03-29T16:39:22.016Z,81.30
2023-03-29T16:41:50.884Z,81.10
2023-03-29T16:44:23.914Z,81.20
2023-03-29T16:46:57.551Z,81.60
2023-03-29T16:49:25.024Z,81.40
2023-03-29T16:51:52.448Z,83.10
2023-03-29T16:54:20.003Z,82.20
2023-03-29T16:56:47.580Z,82.90
2023-03-29T16:59:15.293Z,83.70
2023-03-29T17:01:43.085Z,82.20
2023-03-29T17:04:11.537Z,84.40
2023-03-29T17:06:39.017Z,83.20
2023-03-29T17:09:07.303Z,84.20
2023-03-29T17:11:34.946Z,83.00
2023-03-29T17:14:02.454Z,83.20
2023-03-29T17:16:30.214Z,83.10
2023-03-29T17:19:00.974Z,87.00
2023-03-29T17:21:29.765Z,83.70
2023-03-29T17:23:57.519Z,82.70
2023-03-29T17:26:26.650Z,84.80
2023-03-29T17:28:54.250Z,85.90
2023-03-29T17:31:21.745Z,84.20
2023-03-29T17:33:51.884Z,83.60
2023-03-29T17:36:24.057Z,83.70
2023-03-29T17:38:51.879Z,83.20
2023-03-29T17:41:19.400Z,84.60
2023-03-29T17:43:47.813Z,83.60
2023-03-29T17:46:16.548Z,85.50
2023-03-29T17:48:46.770Z,83.50
2023-03-29T17:51:14.154Z,85.00
2023-03-29T17:53:41.466Z,84.40
2023-03-29T17:56:09.268Z,84.30
2023-03-29T17:58:36.689Z,83.90
2023-03-29T18:01:14.536Z,84.40
2023-03-29T18:03:42.785Z,83.80
2023-03-29T18:06:11.565Z,83.70
2023-03-29T18:08:39.358Z,84.10
2023-03-29T18:11:30.885Z,84.60
2023-03-29T18:14:00.732Z,84.90
2023-03-29T18:16:28.602Z,84.00
2023-03-29T18:18:56.627Z,84.90
2023-03-29T18:21:27.103Z,86.90
2023-03-29T18:23:56.989Z,86.60
2023-03-29T18:26:25.172Z,87.30
2023-03-29T18:28:54.414Z,87.30
2023-03-29T18:31:22.093Z,86.60
2023-03-29T18:33:49.618Z,88.70
2023-03-29T18:36:19.271Z,88.80
2023-03-29T18:38:46.796Z,89.60
2023-03-29T18:41:14.673Z,88.90
2023-03-29T18:43:43.160Z,90.00
2023-03-29T18:46:10.864Z,86.90
2023-03-29T18:48:41.863Z,87.70
2023-03-29T18:51:11.579Z,85.30
2023-03-29T18:53:41.552Z,85.50
2023-03-29T18:56:11.944Z,85.90
2023-03-29T18:58:39.312Z,85.40
2023-03-29T19:01:06.863Z,86.40
2023-03-29T19:03:35.133Z,87.10
2023-03-29T19:06:03.848Z,85.80
2023-03-29T19:08:32.970Z,86.80
2023-03-29T19:11:02.376Z,86.70
2023-03-29T19:13:29.867Z,86.00
2023-03-29T19:15:57.416Z,86.80
2023-03-29T19:18:25.236Z,87.20
2023-03-29T19:20:54.171Z,86.50
2023-03-29T19:23:22.983Z,87.30
2023-03-29T19:25:58.129Z,86.80
2023-03-29T19:28:26.423Z,86.70
2023-03-29T19:30:54.574Z,87.00
2023-03-29T19:33:23.266Z,86.80
2023-03-29T19:35:51.841Z,88.10
2023-03-29T19:38:20.213Z,88.10
2023-03-29T19:40:49.830Z,87.30
2023-03-29T19:43:20.643Z,87.40
2023-03-29T19:45:49.661Z,87.10
2023-03-29T19:48:23.538Z,87.90
2023-03-29T19:50:51.928Z,88.70
2023-03-29T19:53:19.466Z,90.00
2023-03-29T19:55:48.689Z,90.30
2023-03-29T19:58:18.372Z,90.30
2023-03-29T20:00:46.684Z,89.80
2023-03-29T20:03:15.680Z,89.20
2023-03-29T20:05:43.392Z,89.20
2023-03-29T20:08:11.484Z,89.40
2023-03-29T20:10:39.347Z,89.50
2023-03-29T20:13:06.843Z,89.30
2023-03-29T20:15:34.989Z,88.60
2023-03-29T20:18:02.472Z,89.00
2023-03-29T20:20:30.087Z,89.90
2023-03-29T20:22:58.553Z,89.50
2023-03-29T20:25:26.075Z,89.40
2023-03-29T20:27:53.639Z,91.30
2023-03-29T20:30:21.175Z,91.30
2023-03-29T20:32:48.636Z,91.30
2023-03-29T20:35:16.493Z,91.30
2023-03-29T20:37:43.936Z,90.60
2023-03-29T20:40:11.597Z,90.10
2023-03-29T20:42:39.272Z,90.00
2023-03-29T20:45:08.002Z,90.40
2023-03-29T20:47:42.479Z,89.50
2023-03-29T20:50:11.045Z,89.60
2023-03-29T20:52:38.315Z,90.00
2023-03-29T20:55:05.996Z,89.60
2023-03-29T20:57:33.721Z,89.80
2023-03-29T21:00:01.890Z,89.80
2023-03-29T21:02:29.353Z,90.10
2023-03-29T21:05:00.240Z,90.50
2023-03-29T21:07:28.658Z,90.00
2023-03-29T21:09:56.300Z,90.70
2023-03-29T21:12:25.631Z,91.50
2023-03-29T21:14:53.108Z,90.80
2023-03-29T21:17:21.846Z,90.30
2023-03-29T21:19:49.253Z,91.80
2023-03-29T21:22:17.613Z,90.40
2023-03-29T21:24:45.009Z,90.10
2023-03-29T21:27:12.539Z,91.00
2023-03-29T21:29:40.062Z,90.80
2023-03-29T21:32:07.540Z,91.30
2023-03-29T21:34:34.827Z,90.50
2023-03-29T21:37:02.345Z,90.60
2023-03-29T21:39:30.238Z,91.30
2023-03-29T21:41:59.079Z,90.40
2023-03-29T21:44:26.776Z,90.70
2023-03-29T21:46:54.366Z,90.50
2023-03-29T21:49:21.952Z,91.40
2023-03-29T21:51:49.377Z,90.60
2023-03-29T21:54:17.130Z,90.50
2023-03-29T21:56:45.951Z,90.90
2023-03-29T21:59:13.647Z,90.00
2023-03-29T22:01:41.532Z,90.80
2023-03-29T22:04:09.030Z,91.30
2023-03-29T22:06:36.813Z,90.50
2023-03-29T22:09:05.146Z,90.60
2023-03-29T22:11:32.673Z,90.70
2023-03-29T22:14:00.158Z,91.20
2023-03-29T22:16:28.320Z,90.60
2023-03-29T22:18:55.843Z,90.80
2023-03-29T22:21:26.608Z,91.20
2023-03-29T22:23:56.113Z,90.30
2023-03-29T22:26:29.350Z,90.20
2023-03-29T22:28:57.848Z,90.20
2023-03-29T22:31:27.345Z,90.20
2023-03-29T22:33:55.705Z,90.40
2023-03-29T22:36:25.838Z,90.30
2023-03-29T22:38:54.316Z,90.00
2023-03-29T22:41:23.778Z,90.00
2023-03-29T22:43:55.006Z,90.10
2023-03-29T22:46:23.412Z,90.60
2023-03-29T22:48:52.312Z,91.40
2023-03-29T22:51:20.375Z,90.00
2023-03-29T22:53:47.886Z,90.30
2023-03-29T22:56:17.756Z,90.20
2023-03-29T22:58:45.723Z,90.20
2023-03-29T23:01:13.299Z,90.80
2023-03-29T23:03:40.866Z,90.80
2023-03-29T23:06:08.438Z,90.00
2023-03-29T23:08:36.517Z,90.00
2023-03-29T23:11:04.823Z,90.10
2023-03-29T23:13:33.592Z,89.50
2023-03-29T23:16:03.594Z,89.60
2023-03-29T23:18:34.755Z,88.90
2023-03-29T23:21:05.879Z,88.90
2023-03-29T23:23:33.891Z,90.40
2023-03-29T23:26:02.366Z,90.60
2023-03-29T23:28:34.527Z,89.30
2023-03-29T23:31:11.549Z,89.20
2023-03-29T23:33:41.305Z,88.80
2023-03-29T23:36:16.761Z,88.70
2023-03-29T23:38:45.812Z,88.00
2023-03-29T23:41:14.198Z,88.90
2023-03-29T23:43:43.153Z,89.40
2023-03-29T23:46:13.425Z,88.90
2023-03-29T23:48:49.021Z,89.20
2023-03-29T23:51:28.505Z,87.70
2023-03-29T23:53:56.863Z,87.70
2023-03-29T23:56:24.354Z,88.40
2023-03-29T23:58:51.822Z,88.00
